sensor_id;sensor_type;location;lat;lon;timestamp;P1;durP1;ratioP1;P2;durP2;ratioP2
22417;SDS011;11376;50.932;4.442;2023-05-20T00:02:13;8.15;;;3.67;;
22417;SDS011;11376;50.932;4.442;2023-05-20T00:04:40;11.20;;;4.00;;
22417;SDS011;11376;50.932;4.442;2023-05-20T00:07:06;12.38;;;3.83;;
22417;SDS011;11376;50.932;4.442;2023-05-20T00:09:31;11.30;;;3.97;;
22417;SDS011;11376;50.932;4.442;2023-05-20T00:11:57;9.43;;;3.93;;
22417;SDS011;11376;50.932;4.442;2023-05-20T00:14:23;10.77;;;3.80;;
22417;SDS011;11376;50.932;4.442;2023-05-20T00:16:49;9.47;;;4.27;;
22417;SDS011;11376;50.932;4.442;2023-05-20T00:19:14;10.90;;;3.80;;
22417;SDS011;11376;50.932;4.442;2023-05-20T00:21:40;10.47;;;4.23;;
22417;SDS011;11376;50.932;4.442;2023-05-20T00:24:06;13.87;;;4.10;;
22417;SDS011;11376;50.932;4.442;2023-05-20T00:26:32;10.60;;;3.93;;
22417;SDS011;11376;50.932;4.442;2023-05-20T00:28:57;13.47;;;4.30;;
22417;SDS011;11376;50.932;4.442;2023-05-20T00:31:23;10.80;;;3.77;;
22417;SDS011;11376;50.932;4.442;2023-05-20T00:33:49;11.37;;;4.40;;
22417;SDS011;11376;50.932;4.442;2023-05-20T00:36:14;7.23;;;3.60;;
22417;SDS011;11376;50.932;4.442;2023-05-20T00:38:40;8.93;;;3.97;;
22417;SDS011;11376;50.932;4.442;2023-05-20T00:41:06;9.37;;;3.90;;
22417;SDS011;11376;50.932;4.442;2023-05-20T00:43:32;7.90;;;3.80;;
22417;SDS011;11376;50.932;4.442;2023-05-20T00:45:57;9.17;;;3.57;;
22417;SDS011;11376;50.932;4.442;2023-05-20T00:48:24;8.17;;;3.93;;
22417;SDS011;11376;50.932;4.442;2023-05-20T00:50:50;7.37;;;3.60;;
22417;SDS011;11376;50.932;4.442;2023-05-20T00:53:16;9.27;;;3.93;;
22417;SDS011;11376;50.932;4.442;2023-05-20T00:55:43;10.00;;;3.60;;
22417;SDS011;11376;50.932;4.442;2023-05-20T00:58:09;9.23;;;3.83;;
22417;SDS011;11376;50.932;4.442;2023-05-20T01:00:35;10.07;;;3.90;;
22417;SDS011;11376;50.932;4.442;2023-05-20T01:03:01;7.87;;;3.60;;
22417;SDS011;11376;50.932;4.442;2023-05-20T01:05:27;8.30;;;3.90;;
22417;SDS011;11376;50.932;4.442;2023-05-20T01:07:53;12.73;;;4.37;;
22417;SDS011;11376;50.932;4.442;2023-05-20T01:10:21;11.67;;;3.67;;
22417;SDS011;11376;50.932;4.442;2023-05-20T01:12:51;10.57;;;4.10;;
22417;SDS011;11376;50.932;4.442;2023-05-20T01:15:20;7.87;;;3.67;;
22417;SDS011;11376;50.932;4.442;2023-05-20T01:17:49;9.17;;;3.70;;
22417;SDS011;11376;50.932;4.442;2023-05-20T01:20:16;8.77;;;4.03;;
22417;SDS011;11376;50.932;4.442;2023-05-20T01:22:54;8.23;;;3.93;;
22417;SDS011;11376;50.932;4.442;2023-05-20T01:25:21;8.33;;;3.70;;
22417;SDS011;11376;50.932;4.442;2023-05-20T01:27:47;9.50;;;3.60;;
22417;SDS011;11376;50.932;4.442;2023-05-20T01:30:14;8.40;;;3.40;;
22417;SDS011;11376;50.932;4.442;2023-05-20T01:32:41;8.87;;;3.67;;
22417;SDS011;11376;50.932;4.442;2023-05-20T01:35:16;10.77;;;3.80;;
22417;SDS011;11376;50.932;4.442;2023-05-20T01:37:42;9.40;;;3.87;;
22417;SDS011;11376;50.932;4.442;2023-05-20T01:40:09;9.27;;;3.90;;
22417;SDS011;11376;50.932;4.442;2023-05-20T01:42:38;10.50;;;3.87;;
22417;SDS011;11376;50.932;4.442;2023-05-20T01:45:05;8.77;;;3.97;;
22417;SDS011;11376;50.932;4.442;2023-05-20T01:47:31;13.47;;;3.70;;
22417;SDS011;11376;50.932;4.442;2023-05-20T01:49:57;8.87;;;3.60;;
22417;SDS011;11376;50.932;4.442;2023-05-20T01:52:23;11.63;;;3.83;;
22417;SDS011;11376;50.932;4.442;2023-05-20T01:54:48;8.00;;;3.70;;
22417;SDS011;11376;50.932;4.442;2023-05-20T01:57:17;8.07;;;3.57;;
22417;SDS011;11376;50.932;4.442;2023-05-20T01:59:46;10.13;;;3.60;;
22417;SDS011;11376;50.932;4.442;2023-05-20T02:02:12;13.47;;;3.63;;
22417;SDS011;11376;50.932;4.442;2023-05-20T02:04:38;9.80;;;3.60;;
22417;SDS011;11376;50.932;4.442;2023-05-20T02:07:06;8.90;;;3.70;;
22417;SDS011;11376;50.932;4.442;2023-05-20T02:09:32;7.13;;;3.50;;
22417;SDS011;11376;50.932;4.442;2023-05-20T02:11:57;9.50;;;3.47;;
22417;SDS011;11376;50.932;4.442;2023-05-20T02:14:23;8.63;;;3.23;;
22417;SDS011;11376;50.932;4.442;2023-05-20T02:16:49;8.37;;;3.20;;
22417;SDS011;11376;50.932;4.442;2023-05-20T02:19:15;7.83;;;3.40;;
22417;SDS011;11376;50.932;4.442;2023-05-20T02:21:47;9.07;;;3.07;;
22417;SDS011;11376;50.932;4.442;2023-05-20T02:24:13;11.77;;;3.43;;
22417;SDS011;11376;50.932;4.442;2023-05-20T02:26:40;10.07;;;3.40;;
22417;SDS011;11376;50.932;4.442;2023-05-20T02:29:06;9.27;;;3.50;;
22417;SDS011;11376;50.932;4.442;2023-05-20T02:31:32;8.87;;;3.20;;
22417;SDS011;11376;50.932;4.442;2023-05-20T02:33:58;10.27;;;3.30;;
22417;SDS011;11376;50.932;4.442;2023-05-20T02:36:23;9.00;;;3.33;;
22417;SDS011;11376;50.932;4.442;2023-05-20T02:38:49;7.40;;;3.20;;
22417;SDS011;11376;50.932;4.442;2023-05-20T02:41:15;7.20;;;2.67;;
22417;SDS011;11376;50.932;4.442;2023-05-20T02:43:41;9.60;;;2.93;;
22417;SDS011;11376;50.932;4.442;2023-05-20T02:46:09;8.27;;;3.30;;
22417;SDS011;11376;50.932;4.442;2023-05-20T02:48:34;11.83;;;3.30;;
22417;SDS011;11376;50.932;4.442;2023-05-20T02:51:00;13.03;;;3.30;;
22417;SDS011;11376;50.932;4.442;2023-05-20T02:53:26;8.07;;;3.20;;
22417;SDS011;11376;50.932;4.442;2023-05-20T02:55:51;7.27;;;2.90;;
22417;SDS011;11376;50.932;4.442;2023-05-20T02:58:17;10.03;;;3.10;;
22417;SDS011;11376;50.932;4.442;2023-05-20T03:00:43;10.83;;;3.33;;
22417;SDS011;11376;50.932;4.442;2023-05-20T03:03:09;12.50;;;3.27;;
22417;SDS011;11376;50.932;4.442;2023-05-20T03:05:35;9.93;;;3.23;;
22417;SDS011;11376;50.932;4.442;2023-05-20T03:08:05;11.43;;;3.20;;
22417;SDS011;11376;50.932;4.442;2023-05-20T03:10:33;9.57;;;3.07;;
22417;SDS011;11376;50.932;4.442;2023-05-20T03:13:03;8.40;;;3.10;;
22417;SDS011;11376;50.932;4.442;2023-05-20T03:15:35;9.13;;;3.50;;
22417;SDS011;11376;50.932;4.442;2023-05-20T03:18:01;8.13;;;3.07;;
22417;SDS011;11376;50.932;4.442;2023-05-20T03:20:27;9.50;;;3.17;;
22417;SDS011;11376;50.932;4.442;2023-05-20T03:22:54;8.53;;;3.10;;
22417;SDS011;11376;50.932;4.442;2023-05-20T03:25:21;9.10;;;3.30;;
22417;SDS011;11376;50.932;4.442;2023-05-20T03:27:46;10.13;;;3.43;;
22417;SDS011;11376;50.932;4.442;2023-05-20T03:30:12;7.50;;;3.27;;
22417;SDS011;11376;50.932;4.442;2023-05-20T03:32:38;9.87;;;3.57;;
22417;SDS011;11376;50.932;4.442;2023-05-20T03:35:04;8.50;;;3.83;;
22417;SDS011;11376;50.932;4.442;2023-05-20T03:37:30;11.50;;;3.50;;
22417;SDS011;11376;50.932;4.442;2023-05-20T03:39:56;6.33;;;3.07;;
22417;SDS011;11376;50.932;4.442;2023-05-20T03:42:22;9.90;;;3.43;;
22417;SDS011;11376;50.932;4.442;2023-05-20T03:44:48;9.27;;;3.40;;
22417;SDS011;11376;50.932;4.442;2023-05-20T03:47:13;11.30;;;4.07;;
22417;SDS011;11376;50.932;4.442;2023-05-20T03:49:39;9.03;;;3.50;;
22417;SDS011;11376;50.932;4.442;2023-05-20T03:52:05;10.10;;;3.90;;
22417;SDS011;11376;50.932;4.442;2023-05-20T03:54:31;9.90;;;3.60;;
22417;SDS011;11376;50.932;4.442;2023-05-20T03:56:59;11.87;;;3.80;;
22417;SDS011;11376;50.932;4.442;2023-05-20T03:59:25;10.30;;;3.70;;
22417;SDS011;11376;50.932;4.442;2023-05-20T04:01:51;11.20;;;3.90;;
22417;SDS011;11376;50.932;4.442;2023-05-20T04:04:17;9.87;;;3.87;;
22417;SDS011;11376;50.932;4.442;2023-05-20T04:06:43;11.37;;;3.97;;
22417;SDS011;11376;50.932;4.442;2023-05-20T04:09:09;14.23;;;3.87;;
22417;SDS011;11376;50.932;4.442;2023-05-20T04:11:35;12.40;;;3.80;;
22417;SDS011;11376;50.932;4.442;2023-05-20T04:14:01;15.23;;;3.90;;
22417;SDS011;11376;50.932;4.442;2023-05-20T04:16:27;9.60;;;3.97;;
22417;SDS011;11376;50.932;4.442;2023-05-20T04:18:55;8.03;;;4.17;;
22417;SDS011;11376;50.932;4.442;2023-05-20T04:21:23;11.00;;;4.10;;
22417;SDS011;11376;50.932;4.442;2023-05-20T04:23:48;11.97;;;3.70;;
22417;SDS011;11376;50.932;4.442;2023-05-20T04:26:14;10.73;;;3.53;;
22417;SDS011;11376;50.932;4.442;2023-05-20T04:28:40;11.73;;;4.00;;
22417;SDS011;11376;50.932;4.442;2023-05-20T04:31:06;12.57;;;3.90;;
22417;SDS011;11376;50.932;4.442;2023-05-20T04:33:32;11.57;;;4.07;;
22417;SDS011;11376;50.932;4.442;2023-05-20T04:36:02;11.07;;;4.00;;
22417;SDS011;11376;50.932;4.442;2023-05-20T04:38:29;11.23;;;3.60;;
22417;SDS011;11376;50.932;4.442;2023-05-20T04:40:56;10.83;;;4.37;;
22417;SDS011;11376;50.932;4.442;2023-05-20T04:43:25;9.37;;;3.90;;
22417;SDS011;11376;50.932;4.442;2023-05-20T04:45:53;8.30;;;3.60;;
22417;SDS011;11376;50.932;4.442;2023-05-20T04:48:22;12.03;;;4.17;;
22417;SDS011;11376;50.932;4.442;2023-05-20T04:50:48;12.80;;;3.90;;
22417;SDS011;11376;50.932;4.442;2023-05-20T04:53:15;12.83;;;4.30;;
22417;SDS011;11376;50.932;4.442;2023-05-20T04:55:41;13.00;;;4.23;;
22417;SDS011;11376;50.932;4.442;2023-05-20T04:58:07;13.33;;;3.77;;
22417;SDS011;11376;50.932;4.442;2023-05-20T05:00:39;12.63;;;4.77;;
22417;SDS011;11376;50.932;4.442;2023-05-20T05:03:06;9.80;;;4.13;;
22417;SDS011;11376;50.932;4.442;2023-05-20T05:05:33;8.60;;;3.90;;
22417;SDS011;11376;50.932;4.442;2023-05-20T05:08:01;11.33;;;4.10;;
22417;SDS011;11376;50.932;4.442;2023-05-20T05:10:28;12.33;;;4.17;;
22417;SDS011;11376;50.932;4.442;2023-05-20T05:12:53;10.90;;;3.80;;
22417;SDS011;11376;50.932;4.442;2023-05-20T05:15:19;12.63;;;4.07;;
22417;SDS011;11376;50.932;4.442;2023-05-20T05:17:45;10.80;;;4.00;;
22417;SDS011;11376;50.932;4.442;2023-05-20T05:20:11;10.17;;;3.80;;
22417;SDS011;11376;50.932;4.442;2023-05-20T05:22:37;13.30;;;4.40;;
22417;SDS011;11376;50.932;4.442;2023-05-20T05:25:05;11.83;;;3.90;;
22417;SDS011;11376;50.932;4.442;2023-05-20T05:27:32;13.07;;;3.80;;
22417;SDS011;11376;50.932;4.442;2023-05-20T05:29:59;7.97;;;3.73;;
22417;SDS011;11376;50.932;4.442;2023-05-20T05:32:25;7.77;;;3.50;;
22417;SDS011;11376;50.932;4.442;2023-05-20T05:34:51;9.53;;;4.00;;
22417;SDS011;11376;50.932;4.442;2023-05-20T05:37:17;10.43;;;3.90;;
22417;SDS011;11376;50.932;4.442;2023-05-20T05:39:43;10.03;;;4.30;;
22417;SDS011;11376;50.932;4.442;2023-05-20T05:42:08;11.33;;;3.90;;
22417;SDS011;11376;50.932;4.442;2023-05-20T05:44:34;7.93;;;3.80;;
22417;SDS011;11376;50.932;4.442;2023-05-20T05:47:00;10.17;;;4.20;;
22417;SDS011;11376;50.932;4.442;2023-05-20T05:49:26;8.47;;;4.30;;
22417;SDS011;11376;50.932;4.442;2023-05-20T05:51:51;9.00;;;3.83;;
22417;SDS011;11376;50.932;4.442;2023-05-20T05:54:17;11.33;;;3.80;;
22417;SDS011;11376;50.932;4.442;2023-05-20T05:56:45;13.40;;;3.90;;
22417;SDS011;11376;50.932;4.442;2023-05-20T05:59:11;11.33;;;3.93;;
22417;SDS011;11376;50.932;4.442;2023-05-20T06:01:36;9.20;;;3.60;;
22417;SDS011;11376;50.932;4.442;2023-05-20T06:04:02;8.20;;;3.67;;
22417;SDS011;11376;50.932;4.442;2023-05-20T06:06:28;10.00;;;4.07;;
22417;SDS011;11376;50.932;4.442;2023-05-20T06:08:55;11.57;;;3.93;;
22417;SDS011;11376;50.932;4.442;2023-05-20T06:11:22;10.38;;;4.20;;
22417;SDS011;11376;50.932;4.442;2023-05-20T06:13:48;10.40;;;3.70;;
22417;SDS011;11376;50.932;4.442;2023-05-20T06:16:14;8.55;;;3.70;;
22417;SDS011;11376;50.932;4.442;2023-05-20T06:18:41;9.30;;;4.00;;
22417;SDS011;11376;50.932;4.442;2023-05-20T06:21:07;8.25;;;3.58;;
22417;SDS011;11376;50.932;4.442;2023-05-20T06:23:32;11.38;;;4.05;;
22417;SDS011;11376;50.932;4.442;2023-05-20T06:25:58;9.35;;;3.60;;
22417;SDS011;11376;50.932;4.442;2023-05-20T06:28:25;12.52;;;3.97;;
22417;SDS011;11376;50.932;4.442;2023-05-20T06:30:52;8.85;;;3.58;;
22417;SDS011;11376;50.932;4.442;2023-05-20T06:33:18;10.90;;;3.85;;
22417;SDS011;11376;50.932;4.442;2023-05-20T06:35:46;6.97;;;3.22;;
22417;SDS011;11376;50.932;4.442;2023-05-20T06:38:12;7.75;;;3.58;;
22417;SDS011;11376;50.932;4.442;2023-05-20T06:40:37;8.30;;;3.85;;
22417;SDS011;11376;50.932;4.442;2023-05-20T06:43:03;8.68;;;3.50;;
22417;SDS011;11376;50.932;4.442;2023-05-20T06:45:29;9.48;;;3.40;;
22417;SDS011;11376;50.932;4.442;2023-05-20T06:47:54;7.20;;;3.70;;
22417;SDS011;11376;50.932;4.442;2023-05-20T06:50:20;10.25;;;3.70;;
22417;SDS011;11376;50.932;4.442;2023-05-20T06:52:46;7.45;;;3.47;;
22417;SDS011;11376;50.932;4.442;2023-05-20T06:55:12;11.35;;;3.25;;
22417;SDS011;11376;50.932;4.442;2023-05-20T06:57:38;7.57;;;3.08;;
22417;SDS011;11376;50.932;4.442;2023-05-20T07:00:04;8.60;;;3.65;;
22417;SDS011;11376;50.932;4.442;2023-05-20T07:02:32;11.48;;;3.50;;
22417;SDS011;11376;50.932;4.442;2023-05-20T07:04:57;9.18;;;3.40;;
22417;SDS011;11376;50.932;4.442;2023-05-20T07:07:23;11.32;;;3.53;;
22417;SDS011;11376;50.932;4.442;2023-05-20T07:09:49;7.57;;;3.55;;
22417;SDS011;11376;50.932;4.442;2023-05-20T07:12:15;7.38;;;3.33;;
22417;SDS011;11376;50.932;4.442;2023-05-20T07:14:41;7.88;;;3.38;;
22417;SDS011;11376;50.932;4.442;2023-05-20T07:17:06;8.05;;;3.72;;
22417;SDS011;11376;50.932;4.442;2023-05-20T07:19:32;6.30;;;3.10;;
22417;SDS011;11376;50.932;4.442;2023-05-20T07:21:58;8.48;;;3.10;;
22417;SDS011;11376;50.932;4.442;2023-05-20T07:24:24;6.90;;;3.03;;
22417;SDS011;11376;50.932;4.442;2023-05-20T07:26:50;9.68;;;3.63;;
22417;SDS011;11376;50.932;4.442;2023-05-20T07:29:16;9.50;;;3.10;;
22417;SDS011;11376;50.932;4.442;2023-05-20T07:31:42;8.50;;;3.30;;
22417;SDS011;11376;50.932;4.442;2023-05-20T07:34:07;8.98;;;3.13;;
22417;SDS011;11376;50.932;4.442;2023-05-20T07:36:33;6.40;;;2.80;;
22417;SDS011;11376;50.932;4.442;2023-05-20T07:38:59;6.20;;;2.83;;
22417;SDS011;11376;50.932;4.442;2023-05-20T07:41:25;6.15;;;3.10;;
22417;SDS011;11376;50.932;4.442;2023-05-20T07:43:51;8.70;;;2.95;;
22417;SDS011;11376;50.932;4.442;2023-05-20T07:46:16;7.75;;;2.92;;
22417;SDS011;11376;50.932;4.442;2023-05-20T07:48:42;8.05;;;3.22;;
22417;SDS011;11376;50.932;4.442;2023-05-20T07:51:09;6.38;;;2.92;;
22417;SDS011;11376;50.932;4.442;2023-05-20T07:53:35;7.13;;;2.83;;
22417;SDS011;11376;50.932;4.442;2023-05-20T07:56:01;7.20;;;2.80;;
22417;SDS011;11376;50.932;4.442;2023-05-20T07:58:27;5.15;;;2.55;;
22417;SDS011;11376;50.932;4.442;2023-05-20T08:00:53;7.97;;;3.05;;
22417;SDS011;11376;50.932;4.442;2023-05-20T08:03:19;5.97;;;2.50;;
22417;SDS011;11376;50.932;4.442;2023-05-20T08:05:46;11.57;;;2.72;;
22417;SDS011;11376;50.932;4.442;2023-05-20T08:08:12;6.93;;;2.80;;
22417;SDS011;11376;50.932;4.442;2023-05-20T08:10:38;6.25;;;2.42;;
22417;SDS011;11376;50.932;4.442;2023-05-20T08:13:03;6.45;;;2.65;;
22417;SDS011;11376;50.932;4.442;2023-05-20T08:15:29;5.30;;;2.45;;
22417;SDS011;11376;50.932;4.442;2023-05-20T08:17:55;8.02;;;2.50;;
22417;SDS011;11376;50.932;4.442;2023-05-20T08:20:21;6.63;;;2.55;;
22417;SDS011;11376;50.932;4.442;2023-05-20T08:22:47;6.90;;;2.72;;
22417;SDS011;11376;50.932;4.442;2023-05-20T08:25:12;9.57;;;2.50;;
22417;SDS011;11376;50.932;4.442;2023-05-20T08:27:40;5.00;;;2.30;;
22417;SDS011;11376;50.932;4.442;2023-05-20T08:30:06;4.88;;;2.40;;
22417;SDS011;11376;50.932;4.442;2023-05-20T08:32:34;8.05;;;2.55;;
22417;SDS011;11376;50.932;4.442;2023-05-20T08:35:00;10.35;;;2.55;;
22417;SDS011;11376;50.932;4.442;2023-05-20T08:37:27;8.55;;;2.33;;
22417;SDS011;11376;50.932;4.442;2023-05-20T08:39:54;5.63;;;2.55;;
22417;SDS011;11376;50.932;4.442;2023-05-20T08:42:23;5.10;;;2.28;;
22417;SDS011;11376;50.932;4.442;2023-05-20T08:44:50;8.63;;;2.65;;
22417;SDS011;11376;50.932;4.442;2023-05-20T08:47:17;6.50;;;2.20;;
22417;SDS011;11376;50.932;4.442;2023-05-20T08:49:45;7.25;;;2.60;;
22417;SDS011;11376;50.932;4.442;2023-05-20T08:52:12;10.85;;;2.45;;
22417;SDS011;11376;50.932;4.442;2023-05-20T08:54:44;5.50;;;2.20;;
22417;SDS011;11376;50.932;4.442;2023-05-20T08:57:12;6.07;;;2.28;;
22417;SDS011;11376;50.932;4.442;2023-05-20T08:59:41;9.13;;;2.38;;
22417;SDS011;11376;50.932;4.442;2023-05-20T09:02:08;7.22;;;2.38;;
22417;SDS011;11376;50.932;4.442;2023-05-20T09:04:35;5.40;;;2.35;;
22417;SDS011;11376;50.932;4.442;2023-05-20T09:07:01;5.50;;;2.17;;
22417;SDS011;11376;50.932;4.442;2023-05-20T09:09:28;9.73;;;2.40;;
22417;SDS011;11376;50.932;4.442;2023-05-20T09:11:54;5.57;;;2.38;;
22417;SDS011;11376;50.932;4.442;2023-05-20T09:14:20;7.50;;;2.40;;
22417;SDS011;11376;50.932;4.442;2023-05-20T09:16:49;5.05;;;2.00;;
22417;SDS011;11376;50.932;4.442;2023-05-20T09:19:15;6.38;;;2.28;;
22417;SDS011;11376;50.932;4.442;2023-05-20T09:21:41;6.90;;;2.30;;
22417;SDS011;11376;50.932;4.442;2023-05-20T09:24:07;5.40;;;2.42;;
22417;SDS011;11376;50.932;4.442;2023-05-20T09:26:33;8.85;;;2.20;;
22417;SDS011;11376;50.932;4.442;2023-05-20T09:29:00;9.80;;;2.78;;
22417;SDS011;11376;50.932;4.442;2023-05-20T09:31:26;4.85;;;2.10;;
22417;SDS011;11376;50.932;4.442;2023-05-20T09:33:54;8.55;;;2.40;;
22417;SDS011;11376;50.932;4.442;2023-05-20T09:36:21;7.68;;;2.42;;
22417;SDS011;11376;50.932;4.442;2023-05-20T09:38:50;5.45;;;2.13;;
22417;SDS011;11376;50.932;4.442;2023-05-20T09:41:21;5.70;;;2.05;;
22417;SDS011;11376;50.932;4.442;2023-05-20T09:43:49;5.80;;;2.10;;
22417;SDS011;11376;50.932;4.442;2023-05-20T09:46:17;5.85;;;1.80;;
22417;SDS011;11376;50.932;4.442;2023-05-20T09:48:44;7.10;;;2.08;;
22417;SDS011;11376;50.932;4.442;2023-05-20T09:51:10;3.97;;;2.05;;
22417;SDS011;11376;50.932;4.442;2023-05-20T09:53:37;8.32;;;2.13;;
22417;SDS011;11376;50.932;4.442;2023-05-20T09:56:03;5.88;;;2.05;;
22417;SDS011;11376;50.932;4.442;2023-05-20T09:58:29;5.00;;;2.20;;
22417;SDS011;11376;50.932;4.442;2023-05-20T10:00:57;6.85;;;2.22;;
22417;SDS011;11376;50.932;4.442;2023-05-20T10:03:23;4.88;;;1.80;;
22417;SDS011;11376;50.932;4.442;2023-05-20T10:11:18;9.40;;;1.70;;
22417;SDS011;11376;50.932;4.442;2023-05-20T10:14:16;7.28;;;2.10;;
22417;SDS011;11376;50.932;4.442;2023-05-20T10:16:49;9.13;;;2.17;;
22417;SDS011;11376;50.932;4.442;2023-05-20T10:19:33;6.20;;;1.98;;
22417;SDS011;11376;50.932;4.442;2023-05-20T10:22:07;4.93;;;1.80;;
22417;SDS011;11376;50.932;4.442;2023-05-20T10:27:03;6.93;;;1.92;;
22417;SDS011;11376;50.932;4.442;2023-05-20T10:29:41;4.10;;;1.88;;
22417;SDS011;11376;50.932;4.442;2023-05-20T10:32:30;6.05;;;1.92;;
22417;SDS011;11376;50.932;4.442;2023-05-20T10:34:58;5.57;;;1.80;;
22417;SDS011;11376;50.932;4.442;2023-05-20T10:37:31;9.52;;;2.10;;
22417;SDS011;11376;50.932;4.442;2023-05-20T10:40:06;7.38;;;1.90;;
22417;SDS011;11376;50.932;4.442;2023-05-20T10:42:32;3.58;;;2.25;;
22417;SDS011;11376;50.932;4.442;2023-05-20T10:44:58;4.78;;;2.10;;
22417;SDS011;11376;50.932;4.442;2023-05-20T10:47:24;4.43;;;1.85;;
22417;SDS011;11376;50.932;4.442;2023-05-20T10:49:49;4.47;;;2.05;;
22417;SDS011;11376;50.932;4.442;2023-05-20T10:52:16;4.55;;;2.00;;
22417;SDS011;11376;50.932;4.442;2023-05-20T10:54:45;5.38;;;1.80;;
22417;SDS011;11376;50.932;4.442;2023-05-20T10:57:20;6.75;;;2.00;;
22417;SDS011;11376;50.932;4.442;2023-05-20T10:59:46;5.38;;;1.80;;
22417;SDS011;11376;50.932;4.442;2023-05-20T11:02:16;4.93;;;2.03;;
22417;SDS011;11376;50.932;4.442;2023-05-20T11:04:43;4.50;;;2.15;;
22417;SDS011;11376;50.932;4.442;2023-05-20T11:07:09;5.55;;;2.10;;
22417;SDS011;11376;50.932;4.442;2023-05-20T11:09:35;7.38;;;2.20;;
22417;SDS011;11376;50.932;4.442;2023-05-20T11:12:01;8.02;;;2.20;;
22417;SDS011;11376;50.932;4.442;2023-05-20T11:14:27;6.22;;;2.40;;
22417;SDS011;11376;50.932;4.442;2023-05-20T11:16:56;4.97;;;1.90;;
22417;SDS011;11376;50.932;4.442;2023-05-20T11:19:23;6.78;;;2.33;;
22417;SDS011;11376;50.932;4.442;2023-05-20T11:21:51;8.00;;;2.38;;
22417;SDS011;11376;50.932;4.442;2023-05-20T11:24:24;4.38;;;1.98;;
22417;SDS011;11376;50.932;4.442;2023-05-20T11:26:51;7.32;;;2.08;;
22417;SDS011;11376;50.932;4.442;2023-05-20T11:29:21;6.90;;;1.90;;
22417;SDS011;11376;50.932;4.442;2023-05-20T11:31:48;6.22;;;2.10;;
22417;SDS011;11376;50.932;4.442;2023-05-20T11:34:15;8.73;;;2.10;;
22417;SDS011;11376;50.932;4.442;2023-05-20T11:36:41;4.35;;;2.10;;
22417;SDS011;11376;50.932;4.442;2023-05-20T11:39:08;6.07;;;2.22;;
22417;SDS011;11376;50.932;4.442;2023-05-20T11:41:35;5.07;;;2.30;;
22417;SDS011;11376;50.932;4.442;2023-05-20T11:44:03;8.45;;;2.33;;
22417;SDS011;11376;50.932;4.442;2023-05-20T11:46:29;5.28;;;2.38;;
22417;SDS011;11376;50.932;4.442;2023-05-20T11:48:55;5.10;;;2.00;;
22417;SDS011;11376;50.932;4.442;2023-05-20T11:51:28;5.70;;;2.15;;
22417;SDS011;11376;50.932;4.442;2023-05-20T11:54:00;6.53;;;2.20;;
22417;SDS011;11376;50.932;4.442;2023-05-20T11:56:28;6.60;;;1.88;;
22417;SDS011;11376;50.932;4.442;2023-05-20T11:58:58;9.75;;;2.20;;
22417;SDS011;11376;50.932;4.442;2023-05-20T12:01:25;7.13;;;1.67;;
22417;SDS011;11376;50.932;4.442;2023-05-20T12:03:54;4.50;;;2.00;;
22417;SDS011;11376;50.932;4.442;2023-05-20T12:06:20;6.28;;;1.92;;
22417;SDS011;11376;50.932;4.442;2023-05-20T12:08:46;6.28;;;2.03;;
22417;SDS011;11376;50.932;4.442;2023-05-20T12:11:12;5.15;;;1.75;;
22417;SDS011;11376;50.932;4.442;2023-05-20T12:13:38;4.88;;;1.90;;
22417;SDS011;11376;50.932;4.442;2023-05-20T12:16:04;4.85;;;1.95;;
22417;SDS011;11376;50.932;4.442;2023-05-20T12:18:31;3.90;;;1.90;;
22417;SDS011;11376;50.932;4.442;2023-05-20T12:21:00;7.22;;;2.03;;
22417;SDS011;11376;50.932;4.442;2023-05-20T12:23:26;7.28;;;2.03;;
22417;SDS011;11376;50.932;4.442;2023-05-20T12:25:54;5.45;;;2.00;;
22417;SDS011;11376;50.932;4.442;2023-05-20T12:28:20;4.30;;;1.80;;
22417;SDS011;11376;50.932;4.442;2023-05-20T12:30:46;4.57;;;1.85;;
22417;SDS011;11376;50.932;4.442;2023-05-20T12:33:11;4.85;;;2.10;;
22417;SDS011;11376;50.932;4.442;2023-05-20T12:38:04;4.75;;;2.20;;
22417;SDS011;11376;50.932;4.442;2023-05-20T12:40:31;5.57;;;1.88;;
22417;SDS011;11376;50.932;4.442;2023-05-20T12:43:00;5.00;;;1.80;;
22417;SDS011;11376;50.932;4.442;2023-05-20T12:45:27;7.30;;;1.98;;
22417;SDS011;11376;50.932;4.442;2023-05-20T12:47:54;4.40;;;1.92;;
22417;SDS011;11376;50.932;4.442;2023-05-20T12:50:21;3.72;;;1.85;;
22417;SDS011;11376;50.932;4.442;2023-05-20T12:52:47;3.33;;;1.45;;
22417;SDS011;11376;50.932;4.442;2023-05-20T12:55:12;3.47;;;1.83;;
22417;SDS011;11376;50.932;4.442;2023-05-20T12:57:42;3.55;;;1.75;;
22417;SDS011;11376;50.932;4.442;2023-05-20T13:00:09;4.65;;;2.00;;
22417;SDS011;11376;50.932;4.442;2023-05-20T13:02:35;3.85;;;1.83;;
22417;SDS011;11376;50.932;4.442;2023-05-20T13:05:02;2.95;;;1.80;;
22417;SDS011;11376;50.932;4.442;2023-05-20T13:07:28;6.35;;;1.67;;
22417;SDS011;11376;50.932;4.442;2023-05-20T13:09:56;5.63;;;1.70;;
22417;SDS011;11376;50.932;4.442;2023-05-20T13:12:21;3.70;;;1.63;;
22417;SDS011;11376;50.932;4.442;2023-05-20T13:14:47;6.20;;;2.05;;
22417;SDS011;11376;50.932;4.442;2023-05-20T13:17:13;3.83;;;1.48;;
22417;SDS011;11376;50.932;4.442;2023-05-20T13:19:39;4.47;;;2.00;;
22417;SDS011;11376;50.932;4.442;2023-05-20T13:22:04;5.15;;;1.77;;
22417;SDS011;11376;50.932;4.442;2023-05-20T13:24:31;5.82;;;2.03;;
22417;SDS011;11376;50.932;4.442;2023-05-20T13:26:58;8.25;;;2.10;;
22417;SDS011;11376;50.932;4.442;2023-05-20T13:29:25;4.50;;;2.00;;
22417;SDS011;11376;50.932;4.442;2023-05-20T13:31:51;3.47;;;1.60;;
22417;SDS011;11376;50.932;4.442;2023-05-20T13:34:17;3.70;;;1.60;;
22417;SDS011;11376;50.932;4.442;2023-05-20T13:36:43;4.93;;;1.60;;
22417;SDS011;11376;50.932;4.442;2023-05-20T13:39:09;4.32;;;1.60;;
22417;SDS011;11376;50.932;4.442;2023-05-20T13:41:35;3.80;;;1.60;;
22417;SDS011;11376;50.932;4.442;2023-05-20T13:44:01;3.30;;;1.73;;
22417;SDS011;11376;50.932;4.442;2023-05-20T13:46:27;4.75;;;1.77;;
22417;SDS011;11376;50.932;4.442;2023-05-20T13:48:53;4.05;;;1.70;;
22417;SDS011;11376;50.932;4.442;2023-05-20T13:51:18;12.43;;;2.10;;
22417;SDS011;11376;50.932;4.442;2023-05-20T13:53:44;8.93;;;2.15;;
22417;SDS011;11376;50.932;4.442;2023-05-20T13:56:10;5.57;;;1.90;;
22417;SDS011;11376;50.932;4.442;2023-05-20T13:58:36;4.55;;;1.83;;
22417;SDS011;11376;50.932;4.442;2023-05-20T14:01:02;4.65;;;2.17;;
22417;SDS011;11376;50.932;4.442;2023-05-20T14:03:31;8.98;;;1.77;;
22417;SDS011;11376;50.932;4.442;2023-05-20T14:05:58;4.15;;;1.88;;
22417;SDS011;11376;50.932;4.442;2023-05-20T14:08:25;6.50;;;1.90;;
22417;SDS011;11376;50.932;4.442;2023-05-20T14:10:50;7.90;;;2.08;;
22417;SDS011;11376;50.932;4.442;2023-05-20T14:13:22;5.68;;;1.90;;
22417;SDS011;11376;50.932;4.442;2023-05-20T14:15:49;8.50;;;1.90;;
22417;SDS011;11376;50.932;4.442;2023-05-20T14:18:16;5.28;;;2.17;;
22417;SDS011;11376;50.932;4.442;2023-05-20T14:20:42;6.22;;;1.70;;
22417;SDS011;11376;50.932;4.442;2023-05-20T14:23:09;4.15;;;1.83;;
22417;SDS011;11376;50.932;4.442;2023-05-20T14:25:35;3.95;;;1.88;;
22417;SDS011;11376;50.932;4.442;2023-05-20T14:28:01;3.80;;;1.75;;
22417;SDS011;11376;50.932;4.442;2023-05-20T14:30:27;4.32;;;1.65;;
22417;SDS011;11376;50.932;4.442;2023-05-20T14:32:53;8.27;;;1.88;;
22417;SDS011;11376;50.932;4.442;2023-05-20T14:35:19;7.55;;;1.85;;
22417;SDS011;11376;50.932;4.442;2023-05-20T14:37:45;5.70;;;2.10;;
22417;SDS011;11376;50.932;4.442;2023-05-20T14:40:11;4.53;;;1.70;;
22417;SDS011;11376;50.932;4.442;2023-05-20T14:42:37;2.67;;;1.75;;
22417;SDS011;11376;50.932;4.442;2023-05-20T14:45:03;4.88;;;1.58;;
22417;SDS011;11376;50.932;4.442;2023-05-20T14:47:29;7.95;;;1.80;;
22417;SDS011;11376;50.932;4.442;2023-05-20T14:49:55;2.53;;;1.52;;
22417;SDS011;11376;50.932;4.442;2023-05-20T14:52:21;5.28;;;1.73;;
22417;SDS011;11376;50.932;4.442;2023-05-20T14:54:47;4.10;;;1.75;;